sensor_id;sensor_type;location;lat;lon;timestamp;P1;durP1;ratioP1;P2;durP2;ratioP2
47589;SDS011;33316;52.298;9.056;2023-05-02T00:00:19;5.38;;;2.42;;
47589;SDS011;33316;52.298;9.056;2023-05-02T00:02:46;4.68;;;2.78;;
47589;SDS011;33316;52.298;9.056;2023-05-02T00:05:14;4.35;;;2.45;;
47589;SDS011;33316;52.298;9.056;2023-05-02T00:07:41;5.00;;;2.55;;
47589;SDS011;33316;52.298;9.056;2023-05-02T00:10:08;6.18;;;2.83;;
47589;SDS011;33316;52.298;9.056;2023-05-02T00:12:35;3.97;;;2.45;;
47589;SDS011;33316;52.298;9.056;2023-05-02T00:15:02;5.43;;;3.00;;
47589;SDS011;33316;52.298;9.056;2023-05-02T00:17:30;5.55;;;2.95;;
47589;SDS011;33316;52.298;9.056;2023-05-02T00:19:57;3.72;;;2.30;;
47589;SDS011;33316;52.298;9.056;2023-05-02T00:22:25;5.28;;;2.42;;
47589;SDS011;33316;52.298;9.056;2023-05-02T00:24:54;3.88;;;2.85;;
47589;SDS011;33316;52.298;9.056;2023-05-02T00:27:22;5.93;;;3.38;;
47589;SDS011;33316;52.298;9.056;2023-05-02T00:29:49;7.20;;;4.43;;
47589;SDS011;33316;52.298;9.056;2023-05-02T00:32:16;5.97;;;4.20;;
47589;SDS011;33316;52.298;9.056;2023-05-02T00:34:43;8.98;;;5.70;;
47589;SDS011;33316;52.298;9.056;2023-05-02T00:37:09;8.48;;;5.90;;
47589;SDS011;33316;52.298;9.056;2023-05-02T00:39:38;11.07;;;6.78;;
47589;SDS011;33316;52.298;9.056;2023-05-02T00:42:05;9.55;;;5.97;;
47589;SDS011;33316;52.298;9.056;2023-05-02T00:44:31;11.95;;;7.22;;
47589;SDS011;33316;52.298;9.056;2023-05-02T00:47:00;10.57;;;6.90;;
47589;SDS011;33316;52.298;9.056;2023-05-02T00:49:28;10.25;;;7.28;;
47589;SDS011;33316;52.298;9.056;2023-05-02T00:51:57;10.90;;;6.80;;
47589;SDS011;33316;52.298;9.056;2023-05-02T00:54:23;9.38;;;6.43;;
47589;SDS011;33316;52.298;9.056;2023-05-02T00:56:51;9.07;;;6.75;;
47589;SDS011;33316;52.298;9.056;2023-05-02T00:59:18;12.02;;;8.32;;
47589;SDS011;33316;52.298;9.056;2023-05-02T01:01:49;12.00;;;8.55;;
47589;SDS011;33316;52.298;9.056;2023-05-02T01:04:29;11.50;;;7.82;;
47589;SDS011;33316;52.298;9.056;2023-05-02T01:07:08;10.70;;;7.30;;
47589;SDS011;33316;52.298;9.056;2023-05-02T01:09:47;12.77;;;9.02;;
47589;SDS011;33316;52.298;9.056;2023-05-02T01:12:24;13.38;;;8.98;;
47589;SDS011;33316;52.298;9.056;2023-05-02T01:14:54;12.45;;;8.55;;
47589;SDS011;33316;52.298;9.056;2023-05-02T01:17:23;12.88;;;8.48;;
47589;SDS011;33316;52.298;9.056;2023-05-02T01:19:53;12.90;;;9.02;;
47589;SDS011;33316;52.298;9.056;2023-05-02T01:22:23;14.98;;;8.88;;
47589;SDS011;33316;52.298;9.056;2023-05-02T01:24:53;15.75;;;10.48;;
47589;SDS011;33316;52.298;9.056;2023-05-02T01:27:33;14.05;;;9.15;;
47589;SDS011;33316;52.298;9.056;2023-05-02T01:30:10;14.82;;;9.60;;
47589;SDS011;33316;52.298;9.056;2023-05-02T01:32:40;15.65;;;10.65;;
47589;SDS011;33316;52.298;9.056;2023-05-02T01:35:10;16.67;;;10.95;;
47589;SDS011;33316;52.298;9.056;2023-05-02T01:37:40;13.65;;;9.68;;
47589;SDS011;33316;52.298;9.056;2023-05-02T01:40:10;15.10;;;10.15;;
47589;SDS011;33316;52.298;9.056;2023-05-02T01:42:38;14.65;;;10.50;;
47589;SDS011;33316;52.298;9.056;2023-05-02T01:45:08;17.70;;;11.52;;
47589;SDS011;33316;52.298;9.056;2023-05-02T01:47:39;17.63;;;10.13;;
47589;SDS011;33316;52.298;9.056;2023-05-02T01:50:09;16.25;;;9.75;;
47589;SDS011;33316;52.298;9.056;2023-05-02T01:52:40;16.95;;;10.52;;
47589;SDS011;33316;52.298;9.056;2023-05-02T01:55:08;17.40;;;11.90;;
47589;SDS011;33316;52.298;9.056;2023-05-02T01:57:39;14.82;;;10.27;;
47589;SDS011;33316;52.298;9.056;2023-05-02T02:00:07;16.65;;;10.98;;
47589;SDS011;33316;52.298;9.056;2023-05-02T02:02:37;16.40;;;11.60;;
47589;SDS011;33316;52.298;9.056;2023-05-02T02:05:06;17.27;;;10.98;;
47589;SDS011;33316;52.298;9.056;2023-05-02T02:07:35;16.88;;;11.45;;
47589;SDS011;33316;52.298;9.056;2023-05-02T02:10:03;18.40;;;11.07;;
47589;SDS011;33316;52.298;9.056;2023-05-02T02:12:31;13.82;;;9.75;;
47589;SDS011;33316;52.298;9.056;2023-05-02T02:15:05;15.10;;;9.95;;
47589;SDS011;33316;52.298;9.056;2023-05-02T02:17:38;15.10;;;9.27;;
47589;SDS011;33316;52.298;9.056;2023-05-02T02:20:08;11.90;;;8.80;;
47589;SDS011;33316;52.298;9.056;2023-05-02T02:22:38;12.57;;;8.73;;
47589;SDS011;33316;52.298;9.056;2023-05-02T02:25:07;12.63;;;8.35;;
47589;SDS011;33316;52.298;9.056;2023-05-02T02:27:37;12.77;;;8.80;;
47589;SDS011;33316;52.298;9.056;2023-05-02T02:30:04;11.85;;;8.82;;
47589;SDS011;33316;52.298;9.056;2023-05-02T02:32:33;14.48;;;9.13;;
47589;SDS011;33316;52.298;9.056;2023-05-02T02:35:01;15.15;;;9.90;;
47589;SDS011;33316;52.298;9.056;2023-05-02T02:37:28;14.77;;;9.68;;
47589;SDS011;33316;52.298;9.056;2023-05-02T02:39:59;16.45;;;11.00;;
47589;SDS011;33316;52.298;9.056;2023-05-02T02:42:31;15.88;;;10.63;;
47589;SDS011;33316;52.298;9.056;2023-05-02T02:45:07;12.95;;;9.05;;
47589;SDS011;33316;52.298;9.056;2023-05-02T02:47:43;15.55;;;10.23;;
47589;SDS011;33316;52.298;9.056;2023-05-02T02:50:16;12.57;;;8.65;;
47589;SDS011;33316;52.298;9.056;2023-05-02T02:52:49;12.30;;;8.63;;
47589;SDS011;33316;52.298;9.056;2023-05-02T02:55:23;16.38;;;9.68;;
47589;SDS011;33316;52.298;9.056;2023-05-02T02:57:57;13.65;;;8.85;;
47589;SDS011;33316;52.298;9.056;2023-05-02T03:00:27;12.15;;;8.68;;
47589;SDS011;33316;52.298;9.056;2023-05-02T03:02:54;13.57;;;9.07;;
47589;SDS011;33316;52.298;9.056;2023-05-02T03:05:23;17.45;;;9.98;;
47589;SDS011;33316;52.298;9.056;2023-05-02T03:07:50;15.32;;;9.95;;
47589;SDS011;33316;52.298;9.056;2023-05-02T03:10:17;14.93;;;9.35;;
47589;SDS011;33316;52.298;9.056;2023-05-02T03:12:44;17.67;;;11.32;;
47589;SDS011;33316;52.298;9.056;2023-05-02T03:15:15;15.30;;;10.18;;
47589;SDS011;33316;52.298;9.056;2023-05-02T03:17:50;15.40;;;9.68;;
47589;SDS011;33316;52.298;9.056;2023-05-02T03:20:17;18.58;;;11.15;;
47589;SDS011;33316;52.298;9.056;2023-05-02T03:22:45;17.20;;;12.00;;
47589;SDS011;33316;52.298;9.056;2023-05-02T03:25:12;18.58;;;11.38;;
47589;SDS011;33316;52.298;9.056;2023-05-02T03:27:38;16.35;;;11.48;;
47589;SDS011;33316;52.298;9.056;2023-05-02T03:30:06;20.17;;;12.55;;
47589;SDS011;33316;52.298;9.056;2023-05-02T03:32:33;18.33;;;11.65;;
47589;SDS011;33316;52.298;9.056;2023-05-02T03:35:00;16.75;;;11.20;;
47589;SDS011;33316;52.298;9.056;2023-05-02T03:37:26;17.67;;;12.07;;
47589;SDS011;33316;52.298;9.056;2023-05-02T03:39:54;18.02;;;12.52;;
47589;SDS011;33316;52.298;9.056;2023-05-02T03:42:21;19.33;;;11.85;;
47589;SDS011;33316;52.298;9.056;2023-05-02T03:44:50;17.23;;;11.32;;
47589;SDS011;33316;52.298;9.056;2023-05-02T03:47:17;18.98;;;11.85;;
47589;SDS011;33316;52.298;9.056;2023-05-02T03:49:44;17.33;;;11.95;;
47589;SDS011;33316;52.298;9.056;2023-05-02T03:52:11;17.80;;;12.32;;
47589;SDS011;33316;52.298;9.056;2023-05-02T03:54:38;19.55;;;13.18;;
47589;SDS011;33316;52.298;9.056;2023-05-02T03:57:06;20.00;;;12.85;;
47589;SDS011;33316;52.298;9.056;2023-05-02T03:59:33;17.48;;;11.80;;
47589;SDS011;33316;52.298;9.056;2023-05-02T04:02:00;19.85;;;12.07;;
47589;SDS011;33316;52.298;9.056;2023-05-02T04:04:26;17.60;;;11.82;;
47589;SDS011;33316;52.298;9.056;2023-05-02T04:06:53;15.98;;;10.93;;
47589;SDS011;33316;52.298;9.056;2023-05-02T04:09:19;15.73;;;10.90;;
47589;SDS011;33316;52.298;9.056;2023-05-02T04:11:49;13.02;;;9.35;;
47589;SDS011;33316;52.298;9.056;2023-05-02T04:14:17;15.95;;;10.45;;
47589;SDS011;33316;52.298;9.056;2023-05-02T04:16:46;12.88;;;9.10;;
47589;SDS011;33316;52.298;9.056;2023-05-02T04:19:13;14.20;;;8.95;;
47589;SDS011;33316;52.298;9.056;2023-05-02T04:21:40;12.10;;;8.27;;
47589;SDS011;33316;52.298;9.056;2023-05-02T04:24:07;14.10;;;8.25;;
47589;SDS011;33316;52.298;9.056;2023-05-02T04:26:34;10.70;;;7.65;;
47589;SDS011;33316;52.298;9.056;2023-05-02T04:29:01;10.25;;;6.88;;
47589;SDS011;33316;52.298;9.056;2023-05-02T04:31:30;12.70;;;7.18;;
47589;SDS011;33316;52.298;9.056;2023-05-02T04:33:56;12.57;;;7.35;;
47589;SDS011;33316;52.298;9.056;2023-05-02T04:36:23;12.68;;;7.60;;
47589;SDS011;33316;52.298;9.056;2023-05-02T04:38:52;10.38;;;7.15;;
47589;SDS011;33316;52.298;9.056;2023-05-02T04:41:18;8.75;;;6.72;;
47589;SDS011;33316;52.298;9.056;2023-05-02T04:43:45;11.15;;;6.57;;
47589;SDS011;33316;52.298;9.056;2023-05-02T04:46:12;10.65;;;6.55;;
47589;SDS011;33316;52.298;9.056;2023-05-02T04:48:40;9.98;;;6.30;;
47589;SDS011;33316;52.298;9.056;2023-05-02T04:51:06;8.95;;;6.10;;
47589;SDS011;33316;52.298;9.056;2023-05-02T04:53:33;9.80;;;6.55;;
47589;SDS011;33316;52.298;9.056;2023-05-02T04:56:00;10.52;;;6.22;;
47589;SDS011;33316;52.298;9.056;2023-05-02T04:58:27;8.95;;;5.22;;
47589;SDS011;33316;52.298;9.056;2023-05-02T05:00:53;9.82;;;5.72;;
47589;SDS011;33316;52.298;9.056;2023-05-02T05:03:20;10.80;;;6.28;;
47589;SDS011;33316;52.298;9.056;2023-05-02T05:05:48;10.18;;;6.05;;
47589;SDS011;33316;52.298;9.056;2023-05-02T05:08:15;4.47;;;2.70;;
47589;SDS011;33316;52.298;9.056;2023-05-02T05:10:42;2.30;;;1.48;;
47589;SDS011;33316;52.298;9.056;2023-05-02T05:13:08;2.90;;;1.65;;
47589;SDS011;33316;52.298;9.056;2023-05-02T05:15:36;2.63;;;1.30;;
47589;SDS011;33316;52.298;9.056;2023-05-02T05:18:03;1.58;;;1.15;;
47589;SDS011;33316;52.298;9.056;2023-05-02T05:20:30;4.05;;;1.30;;
47589;SDS011;33316;52.298;9.056;2023-05-02T05:23:00;3.55;;;1.50;;
47589;SDS011;33316;52.298;9.056;2023-05-02T05:25:27;3.83;;;1.98;;
47589;SDS011;33316;52.298;9.056;2023-05-02T05:27:53;5.32;;;1.95;;
47589;SDS011;33316;52.298;9.056;2023-05-02T05:30:21;6.95;;;2.08;;
47589;SDS011;33316;52.298;9.056;2023-05-02T05:32:48;5.72;;;2.13;;
47589;SDS011;33316;52.298;9.056;2023-05-02T05:35:14;6.60;;;1.92;;
47589;SDS011;33316;52.298;9.056;2023-05-02T05:37:41;7.80;;;2.17;;
47589;SDS011;33316;52.298;9.056;2023-05-02T05:40:10;6.93;;;2.65;;
47589;SDS011;33316;52.298;9.056;2023-05-02T05:42:36;7.53;;;2.40;;
47589;SDS011;33316;52.298;9.056;2023-05-02T05:45:03;8.10;;;2.70;;
47589;SDS011;33316;52.298;9.056;2023-05-02T05:47:30;8.48;;;2.63;;
47589;SDS011;33316;52.298;9.056;2023-05-02T05:49:57;6.05;;;2.63;;
47589;SDS011;33316;52.298;9.056;2023-05-02T05:52:24;7.05;;;2.67;;
47589;SDS011;33316;52.298;9.056;2023-05-02T05:54:52;7.38;;;2.45;;
47589;SDS011;33316;52.298;9.056;2023-05-02T05:57:20;7.60;;;3.40;;
47589;SDS011;33316;52.298;9.056;2023-05-02T05:59:47;6.47;;;2.88;;
47589;SDS011;33316;52.298;9.056;2023-05-02T06:02:13;7.53;;;3.10;;
47589;SDS011;33316;52.298;9.056;2023-05-02T06:04:40;11.68;;;3.55;;
47589;SDS011;33316;52.298;9.056;2023-05-02T06:07:07;9.63;;;3.25;;
47589;SDS011;33316;52.298;9.056;2023-05-02T06:09:33;6.38;;;2.97;;
47589;SDS011;33316;52.298;9.056;2023-05-02T06:12:00;9.40;;;3.20;;
47589;SDS011;33316;52.298;9.056;2023-05-02T06:14:28;6.38;;;2.63;;
47589;SDS011;33316;52.298;9.056;2023-05-02T06:16:57;7.03;;;2.30;;
47589;SDS011;33316;52.298;9.056;2023-05-02T06:19:24;6.50;;;2.35;;
47589;SDS011;33316;52.298;9.056;2023-05-02T06:21:50;8.23;;;2.60;;
47589;SDS011;33316;52.298;9.056;2023-05-02T06:24:17;6.10;;;2.35;;
47589;SDS011;33316;52.298;9.056;2023-05-02T06:26:44;4.82;;;2.40;;
47589;SDS011;33316;52.298;9.056;2023-05-02T06:29:11;5.95;;;2.42;;
47589;SDS011;33316;52.298;9.056;2023-05-02T06:31:39;6.13;;;2.63;;
47589;SDS011;33316;52.298;9.056;2023-05-02T06:34:06;4.88;;;2.28;;
47589;SDS011;33316;52.298;9.056;2023-05-02T06:36:33;6.40;;;2.22;;
47589;SDS011;33316;52.298;9.056;2023-05-02T06:38:59;5.50;;;2.45;;
47589;SDS011;33316;52.298;9.056;2023-05-02T06:41:26;5.80;;;1.83;;
47589;SDS011;33316;52.298;9.056;2023-05-02T06:43:53;4.75;;;1.92;;
47589;SDS011;33316;52.298;9.056;2023-05-02T06:46:19;7.85;;;2.85;;
47589;SDS011;33316;52.298;9.056;2023-05-02T06:48:47;7.15;;;2.53;;
47589;SDS011;33316;52.298;9.056;2023-05-02T06:51:15;6.43;;;2.50;;
47589;SDS011;33316;52.298;9.056;2023-05-02T06:53:43;8.18;;;2.22;;
47589;SDS011;33316;52.298;9.056;2023-05-02T06:56:10;8.32;;;2.63;;
47589;SDS011;33316;52.298;9.056;2023-05-02T06:58:36;8.10;;;2.72;;
47589;SDS011;33316;52.298;9.056;2023-05-02T07:01:03;6.20;;;2.35;;
47589;SDS011;33316;52.298;9.056;2023-05-02T07:03:30;9.23;;;2.80;;
47589;SDS011;33316;52.298;9.056;2023-05-02T07:06:01;7.63;;;2.35;;
47589;SDS011;33316;52.298;9.056;2023-05-02T07:08:27;8.07;;;2.88;;
47589;SDS011;33316;52.298;9.056;2023-05-02T07:10:57;9.85;;;2.63;;
47589;SDS011;33316;52.298;9.056;2023-05-02T07:13:23;6.65;;;2.40;;
47589;SDS011;33316;52.298;9.056;2023-05-02T07:15:50;8.57;;;2.40;;
47589;SDS011;33316;52.298;9.056;2023-05-02T07:18:17;7.60;;;2.45;;
47589;SDS011;33316;52.298;9.056;2023-05-02T07:20:46;12.60;;;3.13;;
47589;SDS011;33316;52.298;9.056;2023-05-02T07:23:17;7.40;;;2.67;;
47589;SDS011;33316;52.298;9.056;2023-05-02T07:25:44;9.93;;;3.03;;
47589;SDS011;33316;52.298;9.056;2023-05-02T07:28:12;7.18;;;2.47;;
47589;SDS011;33316;52.298;9.056;2023-05-02T07:30:39;9.23;;;2.67;;
47589;SDS011;33316;52.298;9.056;2023-05-02T07:33:05;11.27;;;2.30;;
47589;SDS011;33316;52.298;9.056;2023-05-02T07:35:35;13.88;;;3.38;;
47589;SDS011;33316;52.298;9.056;2023-05-02T07:38:01;7.55;;;2.78;;
47589;SDS011;33316;52.298;9.056;2023-05-02T07:40:32;10.05;;;2.63;;
47589;SDS011;33316;52.298;9.056;2023-05-02T07:42:59;12.23;;;2.67;;
47589;SDS011;33316;52.298;9.056;2023-05-02T07:45:26;7.72;;;2.75;;
47589;SDS011;33316;52.298;9.056;2023-05-02T07:47:53;13.50;;;2.53;;
47589;SDS011;33316;52.298;9.056;2023-05-02T07:50:20;10.48;;;2.47;;
47589;SDS011;33316;52.298;9.056;2023-05-02T07:52:50;8.73;;;2.03;;
47589;SDS011;33316;52.298;9.056;2023-05-02T07:55:20;6.95;;;2.45;;
47589;SDS011;33316;52.298;9.056;2023-05-02T07:57:48;10.20;;;1.80;;
47589;SDS011;33316;52.298;9.056;2023-05-02T08:00:15;6.43;;;1.63;;
47589;SDS011;33316;52.298;9.056;2023-05-02T08:02:42;6.97;;;2.30;;
47589;SDS011;33316;52.298;9.056;2023-05-02T08:05:09;4.60;;;1.70;;
47589;SDS011;33316;52.298;9.056;2023-05-02T08:07:38;5.57;;;2.10;;
47589;SDS011;33316;52.298;9.056;2023-05-02T08:10:05;5.38;;;1.75;;
47589;SDS011;33316;52.298;9.056;2023-05-02T08:12:36;6.22;;;1.42;;
47589;SDS011;33316;52.298;9.056;2023-05-02T08:15:18;5.32;;;1.88;;
47589;SDS011;33316;52.298;9.056;2023-05-02T08:17:53;8.73;;;2.78;;
47589;SDS011;33316;52.298;9.056;2023-05-02T08:20:25;7.07;;;2.25;;
47589;SDS011;33316;52.298;9.056;2023-05-02T08:22:51;6.95;;;2.20;;
47589;SDS011;33316;52.298;9.056;2023-05-02T08:25:21;6.45;;;1.83;;
47589;SDS011;33316;52.298;9.056;2023-05-02T08:27:48;3.40;;;1.13;;
47589;SDS011;33316;52.298;9.056;2023-05-02T08:30:14;5.43;;;1.45;;
47589;SDS011;33316;52.298;9.056;2023-05-02T08:32:44;4.97;;;1.63;;
47589;SDS011;33316;52.298;9.056;2023-05-02T08:35:11;3.95;;;1.30;;
47589;SDS011;33316;52.298;9.056;2023-05-02T08:37:38;5.00;;;1.67;;
47589;SDS011;33316;52.298;9.056;2023-05-02T08:40:11;6.50;;;2.78;;
47589;SDS011;33316;52.298;9.056;2023-05-02T08:42:53;6.10;;;1.88;;
47589;SDS011;33316;52.298;9.056;2023-05-02T08:45:20;4.45;;;1.45;;
47589;SDS011;33316;52.298;9.056;2023-05-02T08:47:49;3.15;;;1.20;;
47589;SDS011;33316;52.298;9.056;2023-05-02T08:52:52;2.70;;;1.05;;
47589;SDS011;33316;52.298;9.056;2023-05-02T08:55:19;3.33;;;1.00;;
47589;SDS011;33316;52.298;9.056;2023-05-02T08:57:55;3.13;;;1.08;;
47589;SDS011;33316;52.298;9.056;2023-05-02T09:00:22;2.83;;;1.33;;
47589;SDS011;33316;52.298;9.056;2023-05-02T09:03:06;7.97;;;1.92;;
47589;SDS011;33316;52.298;9.056;2023-05-02T09:05:57;4.93;;;1.60;;
47589;SDS011;33316;52.298;9.056;2023-05-02T09:08:32;4.80;;;1.30;;
47589;SDS011;33316;52.298;9.056;2023-05-02T09:11:00;2.83;;;1.17;;
47589;SDS011;33316;52.298;9.056;2023-05-02T09:13:27;6.88;;;1.13;;
47589;SDS011;33316;52.298;9.056;2023-05-02T09:15:58;4.35;;;1.17;;
47589;SDS011;33316;52.298;9.056;2023-05-02T09:18:28;3.97;;;1.13;;
47589;SDS011;33316;52.298;9.056;2023-05-02T09:20:57;3.50;;;1.13;;
47589;SDS011;33316;52.298;9.056;2023-05-02T09:23:35;3.22;;;1.20;;
47589;SDS011;33316;52.298;9.056;2023-05-02T09:26:18;2.85;;;1.00;;
47589;SDS011;33316;52.298;9.056;2023-05-02T09:28:46;5.50;;;1.38;;
47589;SDS011;33316;52.298;9.056;2023-05-02T09:31:15;5.28;;;1.20;;
47589;SDS011;33316;52.298;9.056;2023-05-02T09:33:44;5.90;;;1.63;;
47589;SDS011;33316;52.298;9.056;2023-05-02T09:36:11;7.45;;;1.52;;
47589;SDS011;33316;52.298;9.056;2023-05-02T09:38:40;3.80;;;1.58;;
47589;SDS011;33316;52.298;9.056;2023-05-02T09:41:07;4.80;;;1.63;;
47589;SDS011;33316;52.298;9.056;2023-05-02T09:43:34;4.43;;;1.65;;
47589;SDS011;33316;52.298;9.056;2023-05-02T09:46:01;3.95;;;1.45;;
47589;SDS011;33316;52.298;9.056;2023-05-02T09:48:31;4.53;;;1.77;;
47589;SDS011;33316;52.298;9.056;2023-05-02T09:51:17;6.15;;;1.58;;
47589;SDS011;33316;52.298;9.056;2023-05-02T09:53:45;2.92;;;1.30;;
47589;SDS011;33316;52.298;9.056;2023-05-02T09:56:12;6.07;;;1.70;;
47589;SDS011;33316;52.298;9.056;2023-05-02T09:58:39;4.45;;;1.65;;
47589;SDS011;33316;52.298;9.056;2023-05-02T10:01:06;4.97;;;2.08;;
47589;SDS011;33316;52.298;9.056;2023-05-02T10:03:35;8.18;;;1.98;;
47589;SDS011;33316;52.298;9.056;2023-05-02T10:06:03;7.57;;;1.88;;
47589;SDS011;33316;52.298;9.056;2023-05-02T10:08:35;4.13;;;1.67;;
47589;SDS011;33316;52.298;9.056;2023-05-02T10:11:02;3.40;;;1.42;;
47589;SDS011;33316;52.298;9.056;2023-05-02T10:13:32;3.65;;;1.65;;
47589;SDS011;33316;52.298;9.056;2023-05-02T10:16:01;5.43;;;1.80;;
47589;SDS011;33316;52.298;9.056;2023-05-02T10:18:32;7.03;;;1.58;;
47589;SDS011;33316;52.298;9.056;2023-05-02T10:21:07;6.53;;;1.63;;
47589;SDS011;33316;52.298;9.056;2023-05-02T10:23:36;2.72;;;1.35;;
47589;SDS011;33316;52.298;9.056;2023-05-02T10:26:06;5.03;;;1.70;;
47589;SDS011;33316;52.298;9.056;2023-05-02T10:28:34;2.58;;;1.20;;
47589;SDS011;33316;52.298;9.056;2023-05-02T10:31:02;6.28;;;1.80;;
47589;SDS011;33316;52.298;9.056;2023-05-02T10:33:31;5.68;;;1.75;;
47589;SDS011;33316;52.298;9.056;2023-05-02T10:36:00;2.78;;;1.40;;
47589;SDS011;33316;52.298;9.056;2023-05-02T10:38:27;4.05;;;1.55;;
47589;SDS011;33316;52.298;9.056;2023-05-02T10:40:57;7.57;;;2.17;;
47589;SDS011;33316;52.298;9.056;2023-05-02T10:43:29;4.18;;;2.13;;
47589;SDS011;33316;52.298;9.056;2023-05-02T10:45:58;6.65;;;2.33;;
47589;SDS011;33316;52.298;9.056;2023-05-02T10:48:26;6.57;;;2.60;;
47589;SDS011;33316;52.298;9.056;2023-05-02T10:50:53;8.45;;;2.45;;
47589;SDS011;33316;52.298;9.056;2023-05-02T10:53:21;5.93;;;2.10;;
47589;SDS011;33316;52.298;9.056;2023-05-02T10:56:12;4.03;;;1.80;;
47589;SDS011;33316;52.298;9.056;2023-05-02T10:58:41;3.60;;;1.40;;
47589;SDS011;33316;52.298;9.056;2023-05-02T11:04:10;1.95;;;0.90;;
47589;SDS011;33316;52.298;9.056;2023-05-02T11:09:42;2.75;;;1.25;;
47589;SDS011;33316;52.298;9.056;2023-05-02T11:12:10;3.17;;;1.45;;
47589;SDS011;33316;52.298;9.056;2023-05-02T11:14:57;3.78;;;1.30;;
47589;SDS011;33316;52.298;9.056;2023-05-02T11:17:23;4.45;;;1.23;;
47589;SDS011;33316;52.298;9.056;2023-05-02T11:22:51;6.00;;;2.30;;
47589;SDS011;33316;52.298;9.056;2023-05-02T11:25:31;5.82;;;1.65;;
47589;SDS011;33316;52.298;9.056;2023-05-02T11:28:01;5.05;;;2.53;;
47589;SDS011;33316;52.298;9.056;2023-05-02T11:30:44;6.45;;;3.13;;
47589;SDS011;33316;52.298;9.056;2023-05-02T11:33:15;5.05;;;2.33;;
47589;SDS011;33316;52.298;9.056;2023-05-02T11:35:44;4.22;;;2.10;;
47589;SDS011;33316;52.298;9.056;2023-05-02T11:38:12;7.32;;;2.10;;
47589;SDS011;33316;52.298;9.056;2023-05-02T11:40:54;4.82;;;2.13;;
47589;SDS011;33316;52.298;9.056;2023-05-02T11:43:24;8.27;;;2.20;;
47589;SDS011;33316;52.298;9.056;2023-05-02T11:45:52;4.82;;;2.05;;
47589;SDS011;33316;52.298;9.056;2023-05-02T11:48:20;6.80;;;3.15;;
47589;SDS011;33316;52.298;9.056;2023-05-02T11:50:48;4.53;;;2.28;;
47589;SDS011;33316;52.298;9.056;2023-05-02T11:53:17;5.05;;;2.10;;
47589;SDS011;33316;52.298;9.056;2023-05-02T11:55:47;5.03;;;1.48;;
47589;SDS011;33316;52.298;9.056;2023-05-02T11:58:15;5.72;;;2.33;;
47589;SDS011;33316;52.298;9.056;2023-05-02T12:00:45;7.22;;;2.30;;
47589;SDS011;33316;52.298;9.056;2023-05-02T12:03:23;6.47;;;2.10;;
47589;SDS011;33316;52.298;9.056;2023-05-02T12:05:51;5.90;;;1.92;;
47589;SDS011;33316;52.298;9.056;2023-05-02T12:08:19;6.53;;;1.70;;
47589;SDS011;33316;52.298;9.056;2023-05-02T12:10:48;6.88;;;1.98;;
47589;SDS011;33316;52.298;9.056;2023-05-02T12:13:16;6.68;;;2.38;;
47589;SDS011;33316;52.298;9.056;2023-05-02T12:15:44;4.32;;;2.10;;
47589;SDS011;33316;52.298;9.056;2023-05-02T12:18:12;7.00;;;1.85;;
47589;SDS011;33316;52.298;9.056;2023-05-02T12:20:39;5.63;;;2.10;;
47589;SDS011;33316;52.298;9.056;2023-05-02T12:23:06;4.85;;;1.80;;
47589;SDS011;33316;52.298;9.056;2023-05-02T12:25:36;3.30;;;1.40;;
47589;SDS011;33316;52.298;9.056;2023-05-02T12:28:03;4.40;;;1.60;;
47589;SDS011;33316;52.298;9.056;2023-05-02T12:30:31;4.53;;;1.73;;
47589;SDS011;33316;52.298;9.056;2023-05-02T12:32:59;3.70;;;1.40;;
47589;SDS011;33316;52.298;9.056;2023-05-02T12:35:27;5.80;;;1.65;;
47589;SDS011;33316;52.298;9.056;2023-05-02T12:37:54;4.25;;;1.83;;
47589;SDS011;33316;52.298;9.056;2023-05-02T12:40:36;3.47;;;1.30;;
47589;SDS011;33316;52.298;9.056;2023-05-02T12:43:04;5.25;;;1.38;;
47589;SDS011;33316;52.298;9.056;2023-05-02T12:45:34;5.00;;;1.83;;
47589;SDS011;33316;52.298;9.056;2023-05-02T12:48:05;4.90;;;1.25;;
47589;SDS011;33316;52.298;9.056;2023-05-02T12:50:43;2.05;;;1.00;;
47589;SDS011;33316;52.298;9.056;2023-05-02T12:53:10;2.67;;;1.33;;
47589;SDS011;33316;52.298;9.056;2023-05-02T12:55:37;3.95;;;1.42;;
47589;SDS011;33316;52.298;9.056;2023-05-02T12:58:04;5.20;;;1.85;;
47589;SDS011;33316;52.298;9.056;2023-05-02T13:00:32;3.80;;;1.55;;
47589;SDS011;33316;52.298;9.056;2023-05-02T13:03:00;6.38;;;2.00;;
47589;SDS011;33316;52.298;9.056;2023-05-02T13:05:28;4.32;;;1.75;;
47589;SDS011;33316;52.298;9.056;2023-05-02T13:07:54;4.82;;;1.65;;
47589;SDS011;33316;52.298;9.056;2023-05-02T13:10:22;4.50;;;1.35;;
47589;SDS011;33316;52.298;9.056;2023-05-02T13:12:50;2.85;;;1.20;;
47589;SDS011;33316;52.298;9.056;2023-05-02T13:15:17;6.82;;;1.58;;
47589;SDS011;33316;52.298;9.056;2023-05-02T13:17:44;3.65;;;1.70;;
47589;SDS011;33316;52.298;9.056;2023-05-02T13:20:11;5.10;;;1.75;;
47589;SDS011;33316;52.298;9.056;2023-05-02T13:22:39;3.30;;;1.40;;
47589;SDS011;33316;52.298;9.056;2023-05-02T13:25:06;3.83;;;1.35;;
47589;SDS011;33316;52.298;9.056;2023-05-02T13:27:33;4.32;;;1.52;;
47589;SDS011;33316;52.298;9.056;2023-05-02T13:30:00;4.60;;;1.70;;
47589;SDS011;33316;52.298;9.056;2023-05-02T13:32:27;3.80;;;1.50;;
47589;SDS011;33316;52.298;9.056;2023-05-02T13:34:54;5.53;;;1.75;;
47589;SDS011;33316;52.298;9.056;2023-05-02T13:37:21;4.88;;;2.20;;
47589;SDS011;33316;52.298;9.056;2023-05-02T13:39:49;4.90;;;2.30;;
47589;SDS011;33316;52.298;9.056;2023-05-02T13:42:15;4.38;;;1.70;;
47589;SDS011;33316;52.298;9.056;2023-05-02T13:44:42;3.55;;;1.75;;
47589;SDS011;33316;52.298;9.056;2023-05-02T13:47:09;4.30;;;1.95;;
47589;SDS011;33316;52.298;9.056;2023-05-02T13:49:35;3.42;;;1.40;;
47589;SDS011;33316;52.298;9.056;2023-05-02T13:52:02;3.90;;;1.55;;
47589;SDS011;33316;52.298;9.056;2023-05-02T13:54:29;4.20;;;1.58;;
47589;SDS011;33316;52.298;9.056;2023-05-02T13:57:09;2.70;;;1.65;;
47589;SDS011;33316;52.298;9.056;2023-05-02T13:59:41;4.90;;;1.52;;
47589;SDS011;33316;52.298;9.056;2023-05-02T14:02:07;3.25;;;1.60;;
47589;SDS011;33316;52.298;9.056;2023-05-02T14:04:37;3.80;;;1.58;;
47589;SDS011;33316;52.298;9.056;2023-05-02T14:07:04;5.03;;;1.48;;
47589;SDS011;33316;52.298;9.056;2023-05-02T14:09:34;4.25;;;1.73;;
47589;SDS011;33316;52.298;9.056;2023-05-02T14:12:02;2.65;;;1.30;;
47589;SDS011;33316;52.298;9.056;2023-05-02T14:14:29;3.08;;;0.98;;
47589;SDS011;33316;52.298;9.056;2023-05-02T14:16:55;1.60;;;1.08;;
47589;SDS011;33316;52.298;9.056;2023-05-02T14:19:25;3.13;;;1.55;;
47589;SDS011;33316;52.298;9.056;2023-05-02T14:21:52;1.90;;;1.15;;
47589;SDS011;33316;52.298;9.056;2023-05-02T14:24:18;2.88;;;1.10;;
47589;SDS011;33316;52.298;9.056;2023-05-02T14:26:45;2.40;;;1.20;;
47589;SDS011;33316;52.298;9.056;2023-05-02T14:29:30;1.95;;;1.17;;
47589;SDS011;33316;52.298;9.056;2023-05-02T14:31:57;7.93;;;1.83;;
47589;SDS011;33316;52.298;9.056;2023-05-02T14:34:27;5.63;;;1.50;;
47589;SDS011;33316;52.298;9.056;2023-05-02T14:36:54;3.97;;;1.27;;
47589;SDS011;33316;52.298;9.056;2023-05-02T14:39:24;1.85;;;0.85;;
47589;SDS011;33316;52.298;9.056;2023-05-02T14:41:51;3.40;;;1.10;;
47589;SDS011;33316;52.298;9.056;2023-05-02T14:44:33;5.88;;;1.10;;
47589;SDS011;33316;52.298;9.056;2023-05-02T14:47:02;3.13;;;1.23;;
47589;SDS011;33316;52.298;9.056;2023-05-02T14:49:29;2.42;;;0.77;;
47589;SDS011;33316;52.298;9.056;2023-05-02T14:51:56;2.17;;;0.80;;
47589;SDS011;33316;52.298;9.056;2023-05-02T14:54:26;2.53;;;0.85;;
47589;SDS011;33316;52.298;9.056;2023-05-02T14:56:53;2.15;;;0.93;;
47589;SDS011;33316;52.298;9.056;2023-05-02T14:59:21;2.75;;;1.23;;
47589;SDS011;33316;52.298;9.056;2023-05-02T15:01:51;3.30;;;1.20;;
47589;SDS011;33316;52.298;9.056;2023-05-02T15:04:20;2.05;;;0.98;;